Time,TemperatureF,DewpointF,PressureIn,WindDirection,WindDirectionDegrees,WindSpeedMPH,WindSpeedGustMPH,Humidity,HourlyPrecipIn,Conditions,Clouds,dailyrainin,SoftwareType,DateUTC
2013-08-24 00:13:00,74.0,73.0,29.99,East,98,1.0,-999.0,98,-99.99,,,0.00,,2013-08-24 05:13:00,
2013-08-24 00:23:00,74.0,73.0,30.00,SSE,156,0.0,-999.0,97,-99.99,,,0.00,,2013-08-24 05:23:00,
2013-08-24 00:43:00,74.0,73.0,29.99,SSE,156,0.0,-999.0,97,-99.99,,,0.00,,2013-08-24 05:43:00,
2013-08-24 00:53:00,73.0,72.0,29.99,SSE,156,0.0,-999.0,96,-99.99,,,0.00,,2013-08-24 05:53:00,
2013-08-24 01:12:00,73.0,72.0,29.99,SSE,156,0.0,-999.0,97,-99.99,,,0.00,,2013-08-24 06:12:00,
2013-08-24 01:22:00,73.0,72.0,30.00,SSE,156,0.0,-999.0,98,-99.99,,,0.00,,2013-08-24 06:22:00,
2013-08-24 01:42:00,73.0,72.0,30.00,SSE,156,0.0,-999.0,98,-99.99,,,0.00,,2013-08-24 06:42:00,
2013-08-24 01:52:00,72.0,71.0,30.00,South,172,0.0,-999.0,98,-99.99,,,0.00,,2013-08-24 06:52:00,
2013-08-24 02:12:00,73.0,72.0,30.00,SSE,149,0.0,-999.0,98,-99.99,,,0.00,,2013-08-24 07:12:00,
2013-08-24 02:22:00,72.0,71.0,30.00,SSE,149,0.0,-999.0,98,-99.99,,,0.00,,2013-08-24 07:22:00,
2013-08-24 02:43:00,72.0,71.0,30.00,SSE,149,0.0,-999.0,98,-99.99,,,0.00,,2013-08-24 07:43:00,
2013-08-24 02:53:00,72.0,72.0,30.00,SSE,149,0.0,-999.0,99,-99.99,,,0.00,,2013-08-24 07:53:00,
2013-08-24 03:12:00,72.0,72.0,30.00,SSE,149,0.0,-999.0,99,-99.99,,,0.00,,2013-08-24 08:12:00,
2013-08-24 03:22:00,72.0,72.0,30.01,SSE,149,0.0,-999.0,99,-99.99,,,0.00,,2013-08-24 08:22:00,
2013-08-24 03:52:00,71.0,70.0,30.01,SSE,149,0.0,-999.0,98,-99.99,,,0.00,,2013-08-24 08:52:00,
2013-08-24 04:11:00,71.0,71.0,30.01,SSE,149,0.0,-999.0,99,-99.99,,,0.00,,2013-08-24 09:11:00,
2013-08-24 04:22:00,71.0,71.0,30.01,SSE,149,0.0,-999.0,99,-99.99,,,0.00,,2013-08-24 09:22:00,
2013-08-24 04:44:00,70.0,69.0,30.02,SSE,149,0.0,-999.0,98,-99.99,,,0.00,,2013-08-24 09:44:00,
2013-08-24 04:53:00,70.0,70.0,30.01,SSE,149,0.0,-999.0,99,-99.99,,,0.00,,2013-08-24 09:53:00,
2013-08-24 05:13:00,70.0,70.0,30.02,SSE,149,0.0,-999.0,99,-99.99,,,0.00,,2013-08-24 10:13:00,
2013-08-24 05:23:00,70.0,70.0,30.02,SSE,149,0.0,-999.0,99,-99.99,,,0.00,,2013-08-24 10:23:00,
2013-08-24 05:42:00,69.0,68.0,30.03,SSE,149,0.0,-999.0,98,-99.99,,,0.00,,2013-08-24 10:42:00,
2013-08-24 05:53:00,69.0,69.0,30.03,SSE,149,0.0,-999.0,99,-99.99,,,0.00,,2013-08-24 10:53:00,
2013-08-24 06:12:00,69.0,69.0,30.03,SSE,149,0.0,-999.0,99,-99.99,,,0.00,,2013-08-24 11:12:00,
2013-08-24 06:22:00,70.0,70.0,30.05,ESE,114,1.0,-999.0,99,-99.99,,,0.00,,2013-08-24 11:22:00,
2013-08-24 06:52:00,70.0,70.0,30.06,ESE,115,0.0,-999.0,99,-99.99,,,0.00,,2013-08-24 11:52:00,
2013-08-24 07:12:00,70.0,70.0,30.06,ESE,116,0.0,-999.0,99,-99.99,,,0.00,,2013-08-24 12:12:00,
2013-08-24 07:21:00,70.0,70.0,30.07,ESE,115,0.0,-999.0,100,-99.99,,,0.00,,2013-08-24 12:21:00,
2013-08-24 07:42:00,71.0,71.0,30.07,ESE,116,0.0,-999.0,100,-99.99,,,0.00,,2013-08-24 12:42:00,
2013-08-24 07:52:00,71.0,71.0,30.07,ESE,116,0.0,-999.0,100,-99.99,,,0.00,,2013-08-24 12:52:00,
2013-08-24 08:11:00,72.0,72.0,30.08,South,182,1.0,-999.0,99,-99.99,,,0.00,,2013-08-24 13:11:00,
2013-08-24 08:22:00,73.0,73.0,30.09,SE,144,2.0,-999.0,99,-99.99,,,0.00,,2013-08-24 13:22:00,
2013-08-24 08:52:00,76.0,73.0,30.09,SSE,161,0.0,-999.0,90,-99.99,,,0.00,,2013-08-24 13:52:00,
2013-08-24 09:11:00,78.0,73.0,30.09,SE,128,1.0,-999.0,86,-99.99,,,0.00,,2013-08-24 14:11:00,
2013-08-24 09:22:00,79.0,74.0,30.09,East,99,2.0,-999.0,84,-99.99,,,0.00,,2013-08-24 14:22:00,
2013-08-24 09:52:00,80.0,73.0,30.08,ESE,115,3.0,-999.0,80,-99.99,,,0.00,,2013-08-24 14:52:00,
2013-08-24 10:12:00,80.0,73.0,30.08,East,83,3.0,-999.0,79,-99.99,,,0.00,,2013-08-24 15:12:00,
2013-08-24 10:22:00,82.0,72.0,30.08,SE,144,4.0,-999.0,72,-99.99,,,0.00,,2013-08-24 15:22:00,
2013-08-24 10:54:00,84.0,73.0,30.08,ESE,115,4.0,-999.0,70,-99.99,,,0.00,,2013-08-24 15:54:00,
2013-08-24 11:13:00,84.0,74.0,30.08,South,188,3.0,-999.0,71,-99.99,,,0.00,,2013-08-24 16:13:00,
2013-08-24 11:23:00,83.0,73.0,30.08,SSW,195,4.0,-999.0,73,-99.99,,,0.00,,2013-08-24 16:23:00,
2013-08-24 11:53:00,86.0,74.0,30.07,South,190,2.0,-999.0,68,-99.99,,,0.00,,2013-08-24 16:53:00,
2013-08-24 12:12:00,86.0,73.0,30.07,SSW,208,2.0,-999.0,65,-99.99,,,0.00,,2013-08-24 17:12:00,
2013-08-24 12:23:00,88.0,76.0,30.07,East,91,2.0,-999.0,67,-99.99,,,0.00,,2013-08-24 17:23:00,
2013-08-24 12:42:00,87.0,75.0,30.06,East,81,3.0,-999.0,67,-99.99,,,0.00,,2013-08-24 17:42:00,
2013-08-24 12:52:00,87.0,75.0,30.06,SSE,168,4.0,-999.0,67,-99.99,,,0.00,,2013-08-24 17:52:00,
2013-08-24 13:13:00,87.0,75.0,30.06,SSE,163,4.0,-999.0,68,-99.99,,,0.00,,2013-08-24 18:13:00,
2013-08-24 13:22:00,87.0,76.0,30.06,SE,125,4.0,-999.0,71,-99.99,,,0.00,,2013-08-24 18:22:00,
2013-08-24 13:42:00,87.0,76.0,30.06,SSE,150,4.0,-999.0,69,-99.99,,,0.00,,2013-08-24 18:42:00,
2013-08-24 13:53:00,88.0,76.0,30.06,SE,139,3.0,-999.0,67,-99.99,,,0.00,,2013-08-24 18:53:00,
2013-08-24 14:12:00,88.0,76.0,30.06,ESE,121,3.0,-999.0,68,-99.99,,,0.00,,2013-08-24 19:12:00,
2013-08-24 14:21:00,88.0,76.0,30.05,SE,137,3.0,-999.0,67,-99.99,,,0.00,,2013-08-24 19:21:00,
2013-08-24 14:52:00,88.0,75.0,30.05,SSE,162,3.0,-999.0,65,-99.99,,,0.00,,2013-08-24 19:52:00,
2013-08-24 15:11:00,88.0,75.0,30.04,SW,222,3.0,-999.0,65,-99.99,,,0.00,,2013-08-24 20:11:00,
2013-08-24 15:22:00,88.0,76.0,30.04,South,189,5.0,-999.0,67,-99.99,,,0.00,,2013-08-24 20:22:00,
2013-08-24 15:52:00,88.0,74.0,30.03,SE,137,3.0,-999.0,64,-99.99,,,0.00,,2013-08-24 20:52:00,
2013-08-24 16:22:00,89.0,75.0,30.03,SSW,200,3.0,-999.0,63,-99.99,,,0.00,,2013-08-24 21:22:00,
2013-08-24 16:55:00,89.0,77.0,30.03,SSW,201,1.0,-999.0,67,-99.99,,,0.00,,2013-08-24 21:55:00,
2013-08-24 17:14:00,89.0,76.0,30.02,SSE,159,3.0,-999.0,65,-99.99,,,0.00,,2013-08-24 22:14:00,
2013-08-24 17:24:00,88.0,76.0,30.02,SE,138,4.0,-999.0,67,-99.99,,,0.00,,2013-08-24 22:24:00,
2013-08-24 17:53:00,88.0,76.0,30.01,ESE,116,1.0,-999.0,67,-99.99,,,0.00,,2013-08-24 22:53:00,
2013-08-24 18:12:00,87.0,75.0,30.02,ESE,120,2.0,-999.0,67,-99.99,,,0.00,,2013-08-24 23:12:00,
2013-08-24 18:22:00,87.0,75.0,30.02,ESE,117,2.0,-999.0,68,-99.99,,,0.00,,2013-08-24 23:22:00,
2013-08-24 18:42:00,87.0,76.0,30.03,ESE,120,1.0,-999.0,69,-99.99,,,0.00,,2013-08-24 23:42:00,
2013-08-24 18:53:00,86.0,75.0,30.03,SE,142,2.0,-999.0,71,-99.99,,,0.00,,2013-08-24 23:53:00,
2013-08-24 19:11:00,85.0,75.0,30.03,SE,139,1.0,-999.0,73,-99.99,,,0.00,,2013-08-25 00:11:00,
2013-08-24 19:22:00,84.0,75.0,30.04,SE,139,1.0,-999.0,75,-99.99,,,0.00,,2013-08-25 00:22:00,
2013-08-24 19:42:00,82.0,74.0,30.05,SSE,156,1.0,-999.0,77,-99.99,,,0.00,,2013-08-25 00:42:00,
2013-08-24 19:52:00,81.0,74.0,30.06,SSE,156,0.0,-999.0,80,-99.99,,,0.00,,2013-08-25 00:52:00,
2013-08-24 20:11:00,80.0,74.0,30.06,SSE,156,1.0,-999.0,83,-99.99,,,0.00,,2013-08-25 01:11:00,
2013-08-24 20:22:00,79.0,74.0,30.06,SSE,156,1.0,-999.0,85,-99.99,,,0.00,,2013-08-25 01:22:00,
2013-08-24 20:42:00,78.0,74.0,30.07,SSE,156,0.0,-999.0,89,-99.99,,,0.00,,2013-08-25 01:42:00,
2013-08-24 20:52:00,77.0,74.0,30.08,SSE,156,0.0,-999.0,90,-99.99,,,0.00,,2013-08-25 01:52:00,
2013-08-24 21:22:00,76.0,73.0,30.09,SSE,156,0.0,-999.0,91,-99.99,,,0.00,,2013-08-25 02:22:00,
2013-08-24 21:42:00,76.0,74.0,30.10,SSE,156,0.0,-999.0,92,-99.99,,,0.00,,2013-08-25 02:42:00,
2013-08-24 21:52:00,75.0,73.0,30.11,SSE,156,0.0,-999.0,93,-99.99,,,0.00,,2013-08-25 02:52:00,
2013-08-24 22:23:00,75.0,73.0,30.12,SSE,156,0.0,-999.0,94,-99.99,,,0.00,,2013-08-25 03:23:00,
2013-08-24 22:54:00,74.0,72.0,30.13,SSE,156,0.0,-999.0,94,-99.99,,,0.00,,2013-08-25 03:54:00,
2013-08-24 23:02:00,-999.0,-99.9,30.13,SSE,156,0.0,-999.0,-999,-99.99,,,-99.99,,2013-08-25 04:02:00,
2013-08-24 23:14:00,74.0,72.0,30.13,SSE,156,0.0,-999.0,94,-99.99,,,0.00,,2013-08-25 04:14:00,
2013-08-24 23:25:00,74.0,72.0,30.13,SSE,156,0.0,-999.0,94,-99.99,,,0.00,,2013-08-25 04:25:00,
2013-08-24 23:43:00,74.0,72.0,30.14,SSE,156,0.0,-999.0,94,-99.99,,,0.00,,2013-08-25 04:43:00,
2013-08-24 23:54:00,74.0,72.0,30.14,SE,146,1.0,-999.0,94,-99.99,,,0.00,,2013-08-25 04:54:00,